sensor_id;sensor_type;location;lat;lon;timestamp;P1;durP1;ratioP1;P2;durP2;ratioP2
2558;SDS011;1289;53.488;10.006;2023-04-25T00:01:12;9.40;;;8.47;;
2558;SDS011;1289;53.488;10.006;2023-04-25T00:03:39;8.20;;;7.40;;
2558;SDS011;1289;53.488;10.006;2023-04-25T00:06:05;8.37;;;6.73;;
2558;SDS011;1289;53.488;10.006;2023-04-25T00:08:33;10.13;;;7.80;;
2558;SDS011;1289;53.488;10.006;2023-04-25T00:11:06;7.60;;;7.00;;
2558;SDS011;1289;53.488;10.006;2023-04-25T00:13:32;8.33;;;7.50;;
2558;SDS011;1289;53.488;10.006;2023-04-25T00:16:01;8.40;;;7.70;;
2558;SDS011;1289;53.488;10.006;2023-04-25T00:18:27;7.23;;;6.63;;
2558;SDS011;1289;53.488;10.006;2023-04-25T00:20:54;7.07;;;6.17;;
2558;SDS011;1289;53.488;10.006;2023-04-25T00:23:21;6.33;;;5.83;;
2558;SDS011;1289;53.488;10.006;2023-04-25T00:25:49;8.13;;;5.10;;
2558;SDS011;1289;53.488;10.006;2023-04-25T00:28:16;6.77;;;6.03;;
2558;SDS011;1289;53.488;10.006;2023-04-25T00:30:43;6.90;;;5.70;;
2558;SDS011;1289;53.488;10.006;2023-04-25T00:33:11;6.13;;;5.50;;
2558;SDS011;1289;53.488;10.006;2023-04-25T00:35:37;6.63;;;6.03;;
2558;SDS011;1289;53.488;10.006;2023-04-25T00:38:04;13.03;;;5.47;;
2558;SDS011;1289;53.488;10.006;2023-04-25T00:40:31;8.47;;;6.00;;
2558;SDS011;1289;53.488;10.006;2023-04-25T00:42:57;7.67;;;6.20;;
2558;SDS011;1289;53.488;10.006;2023-04-25T00:45:25;7.87;;;6.13;;
2558;SDS011;1289;53.488;10.006;2023-04-25T00:47:54;10.57;;;6.27;;
2558;SDS011;1289;53.488;10.006;2023-04-25T00:50:22;9.10;;;5.77;;
2558;SDS011;1289;53.488;10.006;2023-04-25T00:52:48;15.13;;;6.40;;
2558;SDS011;1289;53.488;10.006;2023-04-25T00:55:15;14.40;;;5.93;;
2558;SDS011;1289;53.488;10.006;2023-04-25T00:57:42;9.90;;;5.87;;
2558;SDS011;1289;53.488;10.006;2023-04-25T01:00:09;13.30;;;6.30;;
2558;SDS011;1289;53.488;10.006;2023-04-25T01:02:38;18.37;;;6.60;;
2558;SDS011;1289;53.488;10.006;2023-04-25T01:05:06;10.47;;;5.20;;
2558;SDS011;1289;53.488;10.006;2023-04-25T01:07:35;11.27;;;6.40;;
2558;SDS011;1289;53.488;10.006;2023-04-25T01:10:02;14.00;;;6.60;;
2558;SDS011;1289;53.488;10.006;2023-04-25T01:12:29;11.50;;;5.70;;
2558;SDS011;1289;53.488;10.006;2023-04-25T01:14:56;14.50;;;7.07;;
2558;SDS011;1289;53.488;10.006;2023-04-25T01:17:23;12.90;;;5.80;;
2558;SDS011;1289;53.488;10.006;2023-04-25T01:19:49;16.70;;;8.40;;
2558;SDS011;1289;53.488;10.006;2023-04-25T01:22:17;13.70;;;6.20;;
2558;SDS011;1289;53.488;10.006;2023-04-25T01:24:45;13.43;;;5.93;;
2558;SDS011;1289;53.488;10.006;2023-04-25T01:27:12;15.83;;;6.57;;
2558;SDS011;1289;53.488;10.006;2023-04-25T01:29:39;10.80;;;6.10;;
2558;SDS011;1289;53.488;10.006;2023-04-25T01:32:06;19.13;;;6.93;;
2558;SDS011;1289;53.488;10.006;2023-04-25T01:34:32;7.57;;;6.43;;
2558;SDS011;1289;53.488;10.006;2023-04-25T01:36:59;12.47;;;5.80;;
2558;SDS011;1289;53.488;10.006;2023-04-25T01:39:28;14.13;;;6.10;;
2558;SDS011;1289;53.488;10.006;2023-04-25T01:41:55;13.87;;;5.60;;
2558;SDS011;1289;53.488;10.006;2023-04-25T01:44:22;17.40;;;6.63;;
2558;SDS011;1289;53.488;10.006;2023-04-25T01:46:48;15.97;;;5.73;;
2558;SDS011;1289;53.488;10.006;2023-04-25T01:49:15;15.60;;;6.27;;
2558;SDS011;1289;53.488;10.006;2023-04-25T01:51:43;18.53;;;8.30;;
2558;SDS011;1289;53.488;10.006;2023-04-25T01:54:10;15.27;;;5.93;;
2558;SDS011;1289;53.488;10.006;2023-04-25T01:56:39;20.43;;;7.07;;
2558;SDS011;1289;53.488;10.006;2023-04-25T01:59:08;13.03;;;7.57;;
2558;SDS011;1289;53.488;10.006;2023-04-25T02:02:04;11.23;;;6.57;;
2558;SDS011;1289;53.488;10.006;2023-04-25T02:04:32;12.57;;;6.10;;
2558;SDS011;1289;53.488;10.006;2023-04-25T02:07:00;17.43;;;6.77;;
2558;SDS011;1289;53.488;10.006;2023-04-25T02:09:36;14.47;;;5.60;;
2558;SDS011;1289;53.488;10.006;2023-04-25T02:12:07;16.23;;;6.20;;
2558;SDS011;1289;53.488;10.006;2023-04-25T02:14:48;13.80;;;7.70;;
2558;SDS011;1289;53.488;10.006;2023-04-25T02:17:23;14.63;;;6.87;;
2558;SDS011;1289;53.488;10.006;2023-04-25T02:19:50;10.57;;;6.63;;
2558;SDS011;1289;53.488;10.006;2023-04-25T02:22:16;17.60;;;6.40;;
2558;SDS011;1289;53.488;10.006;2023-04-25T02:24:45;13.93;;;5.97;;
2558;SDS011;1289;53.488;10.006;2023-04-25T02:27:14;13.47;;;6.70;;
2558;SDS011;1289;53.488;10.006;2023-04-25T02:29:41;20.00;;;6.00;;
2558;SDS011;1289;53.488;10.006;2023-04-25T02:32:10;12.37;;;7.37;;
2558;SDS011;1289;53.488;10.006;2023-04-25T02:34:36;9.40;;;7.03;;
2558;SDS011;1289;53.488;10.006;2023-04-25T02:37:03;20.77;;;6.30;;
2558;SDS011;1289;53.488;10.006;2023-04-25T02:39:29;16.27;;;6.93;;
2558;SDS011;1289;53.488;10.006;2023-04-25T02:41:56;17.17;;;6.67;;
2558;SDS011;1289;53.488;10.006;2023-04-25T02:44:24;24.63;;;7.73;;
2558;SDS011;1289;53.488;10.006;2023-04-25T02:46:50;13.43;;;6.00;;
2558;SDS011;1289;53.488;10.006;2023-04-25T02:49:17;17.73;;;6.20;;
2558;SDS011;1289;53.488;10.006;2023-04-25T02:51:44;16.43;;;6.20;;
2558;SDS011;1289;53.488;10.006;2023-04-25T02:54:10;11.53;;;5.60;;
2558;SDS011;1289;53.488;10.006;2023-04-25T02:56:41;17.67;;;5.50;;
2558;SDS011;1289;53.488;10.006;2023-04-25T02:59:13;11.93;;;6.37;;
2558;SDS011;1289;53.488;10.006;2023-04-25T03:01:41;11.63;;;5.60;;
2558;SDS011;1289;53.488;10.006;2023-04-25T03:04:07;16.33;;;7.13;;
2558;SDS011;1289;53.488;10.006;2023-04-25T03:06:34;12.53;;;6.90;;
2558;SDS011;1289;53.488;10.006;2023-04-25T03:09:00;14.77;;;7.03;;
2558;SDS011;1289;53.488;10.006;2023-04-25T03:11:27;13.07;;;5.40;;
2558;SDS011;1289;53.488;10.006;2023-04-25T03:13:54;10.63;;;8.53;;
2558;SDS011;1289;53.488;10.006;2023-04-25T03:16:21;8.40;;;5.80;;
2558;SDS011;1289;53.488;10.006;2023-04-25T03:18:50;8.80;;;5.40;;
2558;SDS011;1289;53.488;10.006;2023-04-25T03:21:17;17.10;;;6.90;;
2558;SDS011;1289;53.488;10.006;2023-04-25T03:23:43;11.63;;;5.20;;
2558;SDS011;1289;53.488;10.006;2023-04-25T03:26:11;11.93;;;5.70;;
2558;SDS011;1289;53.488;10.006;2023-04-25T03:28:37;11.23;;;6.10;;
2558;SDS011;1289;53.488;10.006;2023-04-25T03:31:05;16.57;;;6.40;;
2558;SDS011;1289;53.488;10.006;2023-04-25T03:33:32;10.63;;;6.00;;
2558;SDS011;1289;53.488;10.006;2023-04-25T03:36:00;16.93;;;6.77;;
2558;SDS011;1289;53.488;10.006;2023-04-25T03:38:28;11.63;;;5.97;;
2558;SDS011;1289;53.488;10.006;2023-04-25T03:40:55;16.87;;;6.53;;
2558;SDS011;1289;53.488;10.006;2023-04-25T03:43:35;13.87;;;6.00;;
2558;SDS011;1289;53.488;10.006;2023-04-25T03:46:06;12.27;;;6.40;;
2558;SDS011;1289;53.488;10.006;2023-04-25T03:48:32;15.60;;;8.50;;
2558;SDS011;1289;53.488;10.006;2023-04-25T03:51:00;8.67;;;5.10;;
2558;SDS011;1289;53.488;10.006;2023-04-25T03:53:29;16.40;;;6.93;;
2558;SDS011;1289;53.488;10.006;2023-04-25T03:56:14;8.13;;;4.93;;
2558;SDS011;1289;53.488;10.006;2023-04-25T03:58:42;9.13;;;5.20;;
2558;SDS011;1289;53.488;10.006;2023-04-25T04:01:09;11.27;;;5.77;;
2558;SDS011;1289;53.488;10.006;2023-04-25T04:03:37;15.03;;;6.10;;
2558;SDS011;1289;53.488;10.006;2023-04-25T04:06:06;10.97;;;5.47;;
2558;SDS011;1289;53.488;10.006;2023-04-25T04:08:42;10.73;;;6.70;;
2558;SDS011;1289;53.488;10.006;2023-04-25T04:11:10;14.20;;;5.87;;
2558;SDS011;1289;53.488;10.006;2023-04-25T04:13:37;11.17;;;5.93;;
2558;SDS011;1289;53.488;10.006;2023-04-25T04:16:05;10.93;;;5.50;;
2558;SDS011;1289;53.488;10.006;2023-04-25T04:18:32;16.60;;;6.50;;
2558;SDS011;1289;53.488;10.006;2023-04-25T04:20:59;8.63;;;4.80;;
2558;SDS011;1289;53.488;10.006;2023-04-25T04:23:29;14.40;;;6.40;;
2558;SDS011;1289;53.488;10.006;2023-04-25T04:25:57;12.33;;;5.00;;
2558;SDS011;1289;53.488;10.006;2023-04-25T04:28:38;10.30;;;4.97;;
2558;SDS011;1289;53.488;10.006;2023-04-25T04:31:28;12.57;;;5.73;;
2558;SDS011;1289;53.488;10.006;2023-04-25T04:33:55;15.63;;;7.10;;
2558;SDS011;1289;53.488;10.006;2023-04-25T04:36:22;12.37;;;5.77;;
2558;SDS011;1289;53.488;10.006;2023-04-25T04:38:52;11.73;;;7.00;;
2558;SDS011;1289;53.488;10.006;2023-04-25T04:41:36;11.23;;;5.00;;
2558;SDS011;1289;53.488;10.006;2023-04-25T04:44:27;10.17;;;5.60;;
2558;SDS011;1289;53.488;10.006;2023-04-25T04:47:14;7.77;;;5.30;;
2558;SDS011;1289;53.488;10.006;2023-04-25T04:50:01;9.00;;;6.00;;
2558;SDS011;1289;53.488;10.006;2023-04-25T04:52:43;10.50;;;5.30;;
2558;SDS011;1289;53.488;10.006;2023-04-25T04:55:33;10.67;;;5.30;;
2558;SDS011;1289;53.488;10.006;2023-04-25T04:58:06;13.40;;;6.30;;
2558;SDS011;1289;53.488;10.006;2023-04-25T05:00:45;12.93;;;5.77;;
2558;SDS011;1289;53.488;10.006;2023-04-25T05:03:30;12.90;;;5.03;;
2558;SDS011;1289;53.488;10.006;2023-04-25T05:06:13;15.70;;;6.20;;
2558;SDS011;1289;53.488;10.006;2023-04-25T05:08:49;10.77;;;5.53;;
2558;SDS011;1289;53.488;10.006;2023-04-25T05:11:40;10.00;;;5.30;;
2558;SDS011;1289;53.488;10.006;2023-04-25T05:14:24;10.30;;;5.27;;
2558;SDS011;1289;53.488;10.006;2023-04-25T05:17:17;19.43;;;5.70;;
2558;SDS011;1289;53.488;10.006;2023-04-25T05:20:10;10.90;;;5.23;;
2558;SDS011;1289;53.488;10.006;2023-04-25T05:22:58;11.40;;;5.57;;
2558;SDS011;1289;53.488;10.006;2023-04-25T05:25:51;12.10;;;4.90;;
2558;SDS011;1289;53.488;10.006;2023-04-25T05:28:32;18.90;;;6.87;;
2558;SDS011;1289;53.488;10.006;2023-04-25T05:31:12;12.20;;;5.40;;
2558;SDS011;1289;53.488;10.006;2023-04-25T05:33:48;10.73;;;5.87;;
2558;SDS011;1289;53.488;10.006;2023-04-25T05:36:16;13.13;;;6.20;;
2558;SDS011;1289;53.488;10.006;2023-04-25T05:38:43;13.40;;;5.27;;
2558;SDS011;1289;53.488;10.006;2023-04-25T05:41:13;5.60;;;5.07;;
2558;SDS011;1289;53.488;10.006;2023-04-25T05:43:52;13.30;;;6.60;;
2558;SDS011;1289;53.488;10.006;2023-04-25T05:46:34;10.57;;;5.40;;
2558;SDS011;1289;53.488;10.006;2023-04-25T05:49:19;10.23;;;4.90;;
2558;SDS011;1289;53.488;10.006;2023-04-25T05:51:51;11.30;;;5.40;;
2558;SDS011;1289;53.488;10.006;2023-04-25T05:54:33;10.40;;;5.03;;
2558;SDS011;1289;53.488;10.006;2023-04-25T05:57:00;5.73;;;4.70;;
2558;SDS011;1289;53.488;10.006;2023-04-25T05:59:29;13.50;;;5.33;;
2558;SDS011;1289;53.488;10.006;2023-04-25T06:01:55;15.27;;;4.70;;
2558;SDS011;1289;53.488;10.006;2023-04-25T06:04:22;10.37;;;4.43;;
2558;SDS011;1289;53.488;10.006;2023-04-25T06:06:49;16.83;;;4.70;;
2558;SDS011;1289;53.488;10.006;2023-04-25T06:09:15;5.40;;;3.87;;
2558;SDS011;1289;53.488;10.006;2023-04-25T06:11:42;8.80;;;4.73;;
2558;SDS011;1289;53.488;10.006;2023-04-25T06:14:09;10.83;;;6.30;;
2558;SDS011;1289;53.488;10.006;2023-04-25T06:16:42;17.43;;;5.40;;
2558;SDS011;1289;53.488;10.006;2023-04-25T06:19:09;12.43;;;4.30;;
2558;SDS011;1289;53.488;10.006;2023-04-25T06:21:36;9.50;;;4.70;;
2558;SDS011;1289;53.488;10.006;2023-04-25T06:24:03;13.97;;;6.07;;
2558;SDS011;1289;53.488;10.006;2023-04-25T06:26:30;8.20;;;4.47;;
2558;SDS011;1289;53.488;10.006;2023-04-25T06:28:57;21.27;;;4.60;;
2558;SDS011;1289;53.488;10.006;2023-04-25T06:31:23;9.03;;;5.57;;
2558;SDS011;1289;53.488;10.006;2023-04-25T06:33:52;14.60;;;7.83;;
2558;SDS011;1289;53.488;10.006;2023-04-25T06:36:20;11.97;;;4.90;;
2558;SDS011;1289;53.488;10.006;2023-04-25T06:38:51;6.40;;;4.57;;
2558;SDS011;1289;53.488;10.006;2023-04-25T06:41:17;7.03;;;4.17;;
2558;SDS011;1289;53.488;10.006;2023-04-25T06:43:45;9.07;;;4.40;;
2558;SDS011;1289;53.488;10.006;2023-04-25T06:46:14;10.17;;;5.23;;
2558;SDS011;1289;53.488;10.006;2023-04-25T06:48:45;8.17;;;6.07;;
2558;SDS011;1289;53.488;10.006;2023-04-25T06:51:13;12.27;;;6.50;;
2558;SDS011;1289;53.488;10.006;2023-04-25T06:53:41;7.80;;;4.53;;
2558;SDS011;1289;53.488;10.006;2023-04-25T06:56:13;8.87;;;4.87;;
2558;SDS011;1289;53.488;10.006;2023-04-25T06:58:48;7.53;;;4.57;;
2558;SDS011;1289;53.488;10.006;2023-04-25T07:01:30;13.17;;;5.47;;
2558;SDS011;1289;53.488;10.006;2023-04-25T07:03:59;12.77;;;5.23;;
2558;SDS011;1289;53.488;10.006;2023-04-25T07:06:28;5.30;;;4.80;;
2558;SDS011;1289;53.488;10.006;2023-04-25T07:08:56;8.13;;;4.27;;
2558;SDS011;1289;53.488;10.006;2023-04-25T07:11:23;6.90;;;4.33;;
2558;SDS011;1289;53.488;10.006;2023-04-25T07:13:50;5.30;;;4.17;;
2558;SDS011;1289;53.488;10.006;2023-04-25T07:16:16;10.20;;;4.40;;
2558;SDS011;1289;53.488;10.006;2023-04-25T07:18:43;7.23;;;4.50;;
2558;SDS011;1289;53.488;10.006;2023-04-25T07:21:10;9.90;;;4.57;;
2558;SDS011;1289;53.488;10.006;2023-04-25T07:23:38;7.47;;;4.70;;
2558;SDS011;1289;53.488;10.006;2023-04-25T07:26:09;10.07;;;4.60;;
2558;SDS011;1289;53.488;10.006;2023-04-25T07:28:45;5.50;;;4.30;;
2558;SDS011;1289;53.488;10.006;2023-04-25T07:31:14;17.97;;;4.60;;
2558;SDS011;1289;53.488;10.006;2023-04-25T07:33:42;7.00;;;4.20;;
2558;SDS011;1289;53.488;10.006;2023-04-25T07:36:09;10.30;;;4.60;;
2558;SDS011;1289;53.488;10.006;2023-04-25T07:38:36;7.63;;;4.73;;
2558;SDS011;1289;53.488;10.006;2023-04-25T07:41:04;8.10;;;4.90;;
2558;SDS011;1289;53.488;10.006;2023-04-25T07:43:30;10.83;;;4.83;;
2558;SDS011;1289;53.488;10.006;2023-04-25T07:45:58;8.27;;;4.60;;
2558;SDS011;1289;53.488;10.006;2023-04-25T07:48:27;11.23;;;4.53;;
2558;SDS011;1289;53.488;10.006;2023-04-25T07:50:53;6.10;;;3.80;;
2558;SDS011;1289;53.488;10.006;2023-04-25T07:53:20;8.10;;;3.60;;
2558;SDS011;1289;53.488;10.006;2023-04-25T07:55:52;9.30;;;4.00;;
2558;SDS011;1289;53.488;10.006;2023-04-25T07:58:21;7.03;;;4.37;;
2558;SDS011;1289;53.488;10.006;2023-04-25T08:00:52;6.23;;;3.80;;
2558;SDS011;1289;53.488;10.006;2023-04-25T08:03:30;4.10;;;3.70;;
2558;SDS011;1289;53.488;10.006;2023-04-25T08:05:58;5.57;;;3.47;;
2558;SDS011;1289;53.488;10.006;2023-04-25T08:08:29;5.33;;;3.10;;
2558;SDS011;1289;53.488;10.006;2023-04-25T08:10:55;7.53;;;3.70;;
2558;SDS011;1289;53.488;10.006;2023-04-25T08:13:23;5.73;;;3.50;;
2558;SDS011;1289;53.488;10.006;2023-04-25T08:15:52;8.53;;;3.80;;
2558;SDS011;1289;53.488;10.006;2023-04-25T08:18:18;8.50;;;4.10;;
2558;SDS011;1289;53.488;10.006;2023-04-25T08:20:47;7.00;;;3.40;;
2558;SDS011;1289;53.488;10.006;2023-04-25T08:23:14;7.00;;;3.77;;
2558;SDS011;1289;53.488;10.006;2023-04-25T08:25:52;5.60;;;3.43;;
2558;SDS011;1289;53.488;10.006;2023-04-25T08:28:25;7.57;;;3.63;;
2558;SDS011;1289;53.488;10.006;2023-04-25T08:30:52;7.37;;;3.27;;
2558;SDS011;1289;53.488;10.006;2023-04-25T08:33:19;7.10;;;3.30;;
2558;SDS011;1289;53.488;10.006;2023-04-25T08:35:46;8.90;;;3.30;;
2558;SDS011;1289;53.488;10.006;2023-04-25T08:38:14;3.70;;;3.00;;
2558;SDS011;1289;53.488;10.006;2023-04-25T08:43:14;9.37;;;3.00;;
2558;SDS011;1289;53.488;10.006;2023-04-25T08:45:42;4.73;;;3.33;;
2558;SDS011;1289;53.488;10.006;2023-04-25T08:48:18;8.43;;;3.13;;
2558;SDS011;1289;53.488;10.006;2023-04-25T08:50:46;6.93;;;3.40;;
2558;SDS011;1289;53.488;10.006;2023-04-25T08:53:17;7.87;;;3.37;;
2558;SDS011;1289;53.488;10.006;2023-04-25T08:55:50;6.00;;;3.03;;
2558;SDS011;1289;53.488;10.006;2023-04-25T08:58:16;5.90;;;3.00;;
2558;SDS011;1289;53.488;10.006;2023-04-25T09:00:46;4.57;;;3.20;;
2558;SDS011;1289;53.488;10.006;2023-04-25T09:03:14;4.37;;;3.03;;
2558;SDS011;1289;53.488;10.006;2023-04-25T09:05:41;6.83;;;3.80;;
2558;SDS011;1289;53.488;10.006;2023-04-25T09:08:08;5.53;;;3.10;;
2558;SDS011;1289;53.488;10.006;2023-04-25T09:10:35;7.63;;;3.80;;
2558;SDS011;1289;53.488;10.006;2023-04-25T09:13:03;5.13;;;3.60;;
2558;SDS011;1289;53.488;10.006;2023-04-25T09:15:46;5.83;;;4.50;;
2558;SDS011;1289;53.488;10.006;2023-04-25T09:18:35;7.00;;;3.83;;
2558;SDS011;1289;53.488;10.006;2023-04-25T09:21:04;3.53;;;3.23;;
2558;SDS011;1289;53.488;10.006;2023-04-25T09:23:38;3.20;;;2.90;;
2558;SDS011;1289;53.488;10.006;2023-04-25T09:26:06;4.90;;;3.20;;
2558;SDS011;1289;53.488;10.006;2023-04-25T09:28:33;8.13;;;3.67;;
2558;SDS011;1289;53.488;10.006;2023-04-25T09:31:02;5.63;;;2.80;;
2558;SDS011;1289;53.488;10.006;2023-04-25T09:33:40;4.23;;;2.80;;
2558;SDS011;1289;53.488;10.006;2023-04-25T09:36:08;5.67;;;3.10;;
2558;SDS011;1289;53.488;10.006;2023-04-25T09:39:05;6.37;;;3.87;;
2558;SDS011;1289;53.488;10.006;2023-04-25T09:41:41;3.50;;;3.00;;
2558;SDS011;1289;53.488;10.006;2023-04-25T09:44:08;3.40;;;3.10;;
2558;SDS011;1289;53.488;10.006;2023-04-25T09:46:37;6.50;;;3.87;;
2558;SDS011;1289;53.488;10.006;2023-04-25T09:49:15;4.60;;;3.10;;
2558;SDS011;1289;53.488;10.006;2023-04-25T09:51:53;9.53;;;3.70;;
2558;SDS011;1289;53.488;10.006;2023-04-25T09:54:21;5.83;;;3.20;;
2558;SDS011;1289;53.488;10.006;2023-04-25T09:56:53;3.73;;;3.20;;
2558;SDS011;1289;53.488;10.006;2023-04-25T09:59:20;6.40;;;3.00;;
2558;SDS011;1289;53.488;10.006;2023-04-25T10:01:49;4.10;;;2.80;;
2558;SDS011;1289;53.488;10.006;2023-04-25T10:04:24;5.00;;;3.10;;
2558;SDS011;1289;53.488;10.006;2023-04-25T10:06:58;8.13;;;3.50;;
2558;SDS011;1289;53.488;10.006;2023-04-25T10:09:26;4.47;;;3.20;;
2558;SDS011;1289;53.488;10.006;2023-04-25T10:11:54;8.27;;;3.83;;
2558;SDS011;1289;53.488;10.006;2023-04-25T10:14:21;7.30;;;3.47;;
2558;SDS011;1289;53.488;10.006;2023-04-25T10:16:50;4.77;;;3.43;;
2558;SDS011;1289;53.488;10.006;2023-04-25T10:19:18;5.23;;;3.63;;
2558;SDS011;1289;53.488;10.006;2023-04-25T10:21:46;8.73;;;4.10;;
2558;SDS011;1289;53.488;10.006;2023-04-25T10:24:15;5.23;;;3.43;;
2558;SDS011;1289;53.488;10.006;2023-04-25T10:26:42;4.77;;;3.40;;
2558;SDS011;1289;53.488;10.006;2023-04-25T10:29:09;9.80;;;3.73;;
2558;SDS011;1289;53.488;10.006;2023-04-25T10:31:44;7.10;;;3.40;;
2558;SDS011;1289;53.488;10.006;2023-04-25T10:34:13;7.73;;;3.17;;
2558;SDS011;1289;53.488;10.006;2023-04-25T10:36:39;5.93;;;3.50;;
2558;SDS011;1289;53.488;10.006;2023-04-25T10:39:06;5.73;;;3.23;;
2558;SDS011;1289;53.488;10.006;2023-04-25T10:41:45;7.00;;;3.60;;
2558;SDS011;1289;53.488;10.006;2023-04-25T10:44:12;7.20;;;3.47;;
2558;SDS011;1289;53.488;10.006;2023-04-25T10:46:40;4.80;;;3.00;;
2558;SDS011;1289;53.488;10.006;2023-04-25T10:49:06;4.50;;;2.53;;
2558;SDS011;1289;53.488;10.006;2023-04-25T10:51:36;3.67;;;2.57;;
2558;SDS011;1289;53.488;10.006;2023-04-25T10:54:03;3.07;;;2.30;;
2558;SDS011;1289;53.488;10.006;2023-04-25T10:56:31;2.60;;;2.40;;
2558;SDS011;1289;53.488;10.006;2023-04-25T10:59:06;3.60;;;2.73;;
2558;SDS011;1289;53.488;10.006;2023-04-25T11:01:35;3.50;;;3.03;;
2558;SDS011;1289;53.488;10.006;2023-04-25T11:04:03;9.50;;;3.10;;
2558;SDS011;1289;53.488;10.006;2023-04-25T11:06:32;6.80;;;3.07;;
2558;SDS011;1289;53.488;10.006;2023-04-25T11:09:09;4.70;;;3.20;;
2558;SDS011;1289;53.488;10.006;2023-04-25T11:11:38;10.30;;;3.30;;
2558;SDS011;1289;53.488;10.006;2023-04-25T11:14:05;6.23;;;3.50;;
2558;SDS011;1289;53.488;10.006;2023-04-25T11:16:31;4.97;;;3.07;;
2558;SDS011;1289;53.488;10.006;2023-04-25T11:18:58;6.93;;;3.07;;
2558;SDS011;1289;53.488;10.006;2023-04-25T11:21:25;7.63;;;2.97;;
2558;SDS011;1289;53.488;10.006;2023-04-25T11:23:54;5.43;;;2.97;;
2558;SDS011;1289;53.488;10.006;2023-04-25T11:26:22;6.27;;;3.30;;
2558;SDS011;1289;53.488;10.006;2023-04-25T11:28:50;7.40;;;2.70;;
2558;SDS011;1289;53.488;10.006;2023-04-25T11:31:18;3.67;;;3.07;;
2558;SDS011;1289;53.488;10.006;2023-04-25T11:33:46;3.70;;;3.17;;
2558;SDS011;1289;53.488;10.006;2023-04-25T11:36:13;3.70;;;2.90;;
2558;SDS011;1289;53.488;10.006;2023-04-25T11:38:39;4.10;;;3.00;;
2558;SDS011;1289;53.488;10.006;2023-04-25T11:41:08;4.00;;;2.43;;
2558;SDS011;1289;53.488;10.006;2023-04-25T11:43:34;3.93;;;2.60;;
2558;SDS011;1289;53.488;10.006;2023-04-25T11:46:01;3.40;;;2.67;;
2558;SDS011;1289;53.488;10.006;2023-04-25T11:48:28;3.00;;;2.40;;
2558;SDS011;1289;53.488;10.006;2023-04-25T11:51:03;5.83;;;2.80;;
2558;SDS011;1289;53.488;10.006;2023-04-25T11:53:30;3.67;;;2.43;;
2558;SDS011;1289;53.488;10.006;2023-04-25T11:55:57;3.50;;;2.37;;
2558;SDS011;1289;53.488;10.006;2023-04-25T11:58:25;10.10;;;3.00;;
2558;SDS011;1289;53.488;10.006;2023-04-25T12:00:52;2.73;;;2.53;;
2558;SDS011;1289;53.488;10.006;2023-04-25T12:03:19;5.83;;;3.63;;
2558;SDS011;1289;53.488;10.006;2023-04-25T12:05:46;3.07;;;2.50;;
2558;SDS011;1289;53.488;10.006;2023-04-25T12:08:13;6.63;;;3.57;;
2558;SDS011;1289;53.488;10.006;2023-04-25T12:10:40;3.13;;;2.80;;
2558;SDS011;1289;53.488;10.006;2023-04-25T12:13:17;5.10;;;3.30;;
2558;SDS011;1289;53.488;10.006;2023-04-25T12:15:47;5.43;;;2.57;;
2558;SDS011;1289;53.488;10.006;2023-04-25T12:18:13;4.63;;;2.70;;
2558;SDS011;1289;53.488;10.006;2023-04-25T12:20:41;4.97;;;3.03;;
2558;SDS011;1289;53.488;10.006;2023-04-25T12:23:08;9.70;;;3.20;;
2558;SDS011;1289;53.488;10.006;2023-04-25T12:25:35;7.70;;;4.10;;
2558;SDS011;1289;53.488;10.006;2023-04-25T12:28:11;5.93;;;2.67;;
2558;SDS011;1289;53.488;10.006;2023-04-25T12:30:55;4.43;;;3.60;;
2558;SDS011;1289;53.488;10.006;2023-04-25T12:33:23;3.83;;;2.77;;
2558;SDS011;1289;53.488;10.006;2023-04-25T12:35:50;9.03;;;3.00;;
2558;SDS011;1289;53.488;10.006;2023-04-25T12:38:26;2.67;;;2.47;;
2558;SDS011;1289;53.488;10.006;2023-04-25T12:40:54;4.93;;;2.50;;
2558;SDS011;1289;53.488;10.006;2023-04-25T12:43:21;5.30;;;2.90;;
2558;SDS011;1289;53.488;10.006;2023-04-25T12:45:47;5.30;;;3.40;;
2558;SDS011;1289;53.488;10.006;2023-04-25T12:48:17;5.13;;;3.03;;
2558;SDS011;1289;53.488;10.006;2023-04-25T12:50:44;6.00;;;3.30;;
2558;SDS011;1289;53.488;10.006;2023-04-25T12:53:13;5.97;;;3.07;;
2558;SDS011;1289;53.488;10.006;2023-04-25T12:55:40;7.83;;;3.13;;
2558;SDS011;1289;53.488;10.006;2023-04-25T12:58:07;7.67;;;2.87;;
2558;SDS011;1289;53.488;10.006;2023-04-25T13:00:33;4.63;;;2.70;;
2558;SDS011;1289;53.488;10.006;2023-04-25T13:03:00;6.03;;;2.80;;
2558;SDS011;1289;53.488;10.006;2023-04-25T13:05:28;7.13;;;3.00;;
2558;SDS011;1289;53.488;10.006;2023-04-25T13:07:55;8.60;;;3.57;;
2558;SDS011;1289;53.488;10.006;2023-04-25T13:10:22;8.10;;;3.73;;
2558;SDS011;1289;53.488;10.006;2023-04-25T13:12:48;4.40;;;3.20;;
2558;SDS011;1289;53.488;10.006;2023-04-25T13:15:15;7.93;;;3.30;;
2558;SDS011;1289;53.488;10.006;2023-04-25T13:17:42;5.60;;;5.10;;
2558;SDS011;1289;53.488;10.006;2023-04-25T13:20:09;8.03;;;3.37;;
2558;SDS011;1289;53.488;10.006;2023-04-25T13:22:37;10.37;;;4.43;;
2558;SDS011;1289;53.488;10.006;2023-04-25T13:25:04;10.03;;;3.47;;
2558;SDS011;1289;53.488;10.006;2023-04-25T13:27:32;5.60;;;3.70;;
2558;SDS011;1289;53.488;10.006;2023-04-25T13:29:59;4.23;;;3.00;;
2558;SDS011;1289;53.488;10.006;2023-04-25T13:32:25;3.67;;;3.30;;
2558;SDS011;1289;53.488;10.006;2023-04-25T13:34:52;6.70;;;3.77;;
2558;SDS011;1289;53.488;10.006;2023-04-25T13:37:19;3.77;;;3.40;;
2558;SDS011;1289;53.488;10.006;2023-04-25T13:39:47;4.13;;;3.73;;
2558;SDS011;1289;53.488;10.006;2023-04-25T13:42:13;6.27;;;3.70;;
2558;SDS011;1289;53.488;10.006;2023-04-25T13:44:41;2.90;;;2.70;;
2558;SDS011;1289;53.488;10.006;2023-04-25T13:47:07;5.53;;;3.27;;
2558;SDS011;1289;53.488;10.006;2023-04-25T13:49:34;6.53;;;3.27;;
2558;SDS011;1289;53.488;10.006;2023-04-25T13:52:00;4.10;;;3.50;;
2558;SDS011;1289;53.488;10.006;2023-04-25T13:54:27;5.67;;;3.00;;
2558;SDS011;1289;53.488;10.006;2023-04-25T13:56:55;4.83;;;3.60;;
2558;SDS011;1289;53.488;10.006;2023-04-25T13:59:23;7.50;;;4.23;;
2558;SDS011;1289;53.488;10.006;2023-04-25T14:01:50;4.77;;;2.73;;
2558;SDS011;1289;53.488;10.006;2023-04-25T14:04:17;3.43;;;3.07;;
2558;SDS011;1289;53.488;10.006;2023-04-25T14:06:43;3.60;;;3.23;;
2558;SDS011;1289;53.488;10.006;2023-04-25T14:09:10;3.30;;;3.00;;
2558;SDS011;1289;53.488;10.006;2023-04-25T14:11:37;5.47;;;3.80;;
2558;SDS011;1289;53.488;10.006;2023-04-25T14:14:05;8.80;;;3.70;;
2558;SDS011;1289;53.488;10.006;2023-04-25T14:16:32;5.60;;;3.43;;
2558;SDS011;1289;53.488;10.006;2023-04-25T14:18:58;3.40;;;3.10;;
2558;SDS011;1289;53.488;10.006;2023-04-25T14:21:25;6.77;;;3.30;;
2558;SDS011;1289;53.488;10.006;2023-04-25T14:23:53;3.30;;;3.00;;
2558;SDS011;1289;53.488;10.006;2023-04-25T14:26:20;4.97;;;3.33;;
2558;SDS011;1289;53.488;10.006;2023-04-25T14:28:46;3.37;;;2.97;;
2558;SDS011;1289;53.488;10.006;2023-04-25T14:31:15;5.40;;;3.70;;
2558;SDS011;1289;53.488;10.006;2023-04-25T14:33:42;4.30;;;3.10;;
2558;SDS011;1289;53.488;10.006;2023-04-25T14:36:08;3.90;;;3.00;;
2558;SDS011;1289;53.488;10.006;2023-04-25T14:38:35;10.03;;;3.43;;
2558;SDS011;1289;53.488;10.006;2023-04-25T14:41:02;5.63;;;3.40;;
2558;SDS011;1289;53.488;10.006;2023-04-25T14:43:29;5.33;;;2.90;;
2558;SDS011;1289;53.488;10.006;2023-04-25T14:45:56;4.00;;;2.87;;
2558;SDS011;1289;53.488;10.006;2023-04-25T14:48:24;3.10;;;2.80;;
2558;SDS011;1289;53.488;10.006;2023-04-25T14:50:50;10.27;;;3.10;;
2558;SDS011;1289;53.488;10.006;2023-04-25T14:53:17;7.13;;;3.20;;
2558;SDS011;1289;53.488;10.006;2023-04-25T14:55:44;5.60;;;3.50;;
2558;SDS011;1289;53.488;10.006;2023-04-25T14:58:10;15.63;;;5.63;;
2558;SDS011;1289;53.488;10.006;2023-04-25T15:00:37;3.73;;;3.37;;
2558;SDS011;1289;53.488;10.006;2023-04-25T15:03:04;6.60;;;3.20;;
2558;SDS011;1289;53.488;10.006;2023-04-25T15:05:33;6.30;;;3.00;;
2558;SDS011;1289;53.488;10.006;2023-04-25T15:08:01;5.20;;;2.90;;
2558;SDS011;1289;53.488;10.006;2023-04-25T15:10:28;7.30;;;3.30;;
2558;SDS011;1289;53.488;10.006;2023-04-25T15:12:54;3.17;;;2.80;;